Time;durP1;ratioP1;P1;durP2;ratioP2;P2;SDS_P1;SDS_P2;PMS_P1;PMS_P2;Temp;Humidity;BMP_temperature;BMP_pressure;BME280_temperature;BME280_humidity;BME280_pressure;Samples;Min_cycle;Max_cycle;Signal;HPM_P1;HPM_P2
2023/10/25 00:00:11;;;;;;;6.40;4.10;;;9.40;99.90;;;;;;4953813;29;20038;-70
2023/10/25 00:02:37;;;;;;;9.80;5.10;;;9.40;99.90;;;;;;4954764;29;20038;-70
2023/10/25 00:05:03;;;;;;;9.50;5.22;;;9.40;99.90;;;;;;4937438;29;20027;-71
2023/10/25 00:07:30;;;;;;;6.50;4.03;;;9.40;99.90;;;;;;4949695;29;20031;-71
2023/10/25 00:09:56;;;;;;;6.32;3.75;;;9.40;99.90;;;;;;4967830;28;20487;-71
2023/10/25 00:12:22;;;;;;;7.72;4.38;;;9.40;99.90;;;;;;4953062;29;20050;-72
2023/10/25 00:14:47;;;;;;;5.70;3.75;;;9.40;99.90;;;;;;4937686;29;20031;-70
2023/10/25 00:17:13;;;;;;;7.25;3.88;;;9.40;99.90;;;;;;4932107;29;20039;-70
2023/10/25 00:19:39;;;;;;;9.10;3.80;;;9.40;99.90;;;;;;4937640;29;20465;-70
2023/10/25 00:22:05;;;;;;;15.30;5.85;;;9.40;99.90;;;;;;4937203;29;20031;-70
2023/10/25 00:24:30;;;;;;;8.88;4.20;;;9.30;99.90;;;;;;4954776;28;20038;-70
2023/10/25 00:26:56;;;;;;;6.97;4.97;;;9.40;99.90;;;;;;4929459;29;20086;-70
2023/10/25 00:29:22;;;;;;;13.38;5.30;;;9.30;99.90;;;;;;4945571;29;20093;-70
2023/10/25 00:31:48;;;;;;;8.85;4.70;;;9.30;99.90;;;;;;4953003;28;20543;-70
2023/10/25 00:34:14;;;;;;;7.22;3.38;;;9.30;99.90;;;;;;4937325;29;20480;-71
2023/10/25 00:36:39;;;;;;;9.05;4.38;;;9.40;99.90;;;;;;4952805;29;20046;-70
2023/10/25 00:39:05;;;;;;;9.20;5.22;;;9.30;99.90;;;;;;4929221;29;20109;-70
2023/10/25 00:41:31;;;;;;;9.43;5.57;;;9.30;99.90;;;;;;4952907;29;20038;-70
2023/10/25 00:43:56;;;;;;;6.25;4.60;;;9.30;99.90;;;;;;4936173;29;20032;-70
2023/10/25 00:46:28;;;;;;;10.10;4.70;;;9.40;99.90;;;;;;4944563;28;20034;-71
2023/10/25 00:48:59;;;;;;;;;;;9.50;99.90;;;;;;4953685;29;20115;-70
2023/10/25 00:51:27;;;;;;;8.57;4.57;;;9.50;99.90;;;;;;4959097;28;20289;-70
2023/10/25 00:53:55;;;;;;;9.90;5.20;;;9.60;99.90;;;;;;4935750;29;20036;-70
2023/10/25 00:56:24;;;;;;;6.82;4.57;;;9.60;99.90;;;;;;4952545;28;20031;-70
2023/10/25 00:58:53;;;;;;;10.48;4.72;;;9.60;99.90;;;;;;4951126;28;20027;-71
2023/10/25 01:01:23;;;;;;;11.32;4.88;;;9.60;99.90;;;;;;4936136;29;20051;-71
2023/10/25 01:03:49;;;;;;;11.63;6.57;;;9.60;99.90;;;;;;4952531;28;20118;-70
2023/10/25 01:06:16;;;;;;;9.82;4.45;;;9.60;99.90;;;;;;4946460;28;20039;-70
2023/10/25 01:08:43;;;;;;;17.73;5.78;;;9.60;99.90;;;;;;4952353;29;20035;-71
2023/10/25 01:11:09;;;;;;;8.93;4.88;;;9.60;99.90;;;;;;4947571;28;20121;-70
2023/10/25 01:13:35;;;;;;;10.60;5.57;;;9.60;99.90;;;;;;4953380;28;20099;-70
2023/10/25 01:16:01;;;;;;;11.68;4.85;;;9.60;99.90;;;;;;4950818;29;20151;-70
2023/10/25 01:18:27;;;;;;;11.43;5.80;;;9.60;99.90;;;;;;4949507;28;20027;-70
2023/10/25 01:20:53;;;;;;;9.20;4.75;;;9.60;99.90;;;;;;4950563;29;20493;-71
2023/10/25 01:23:19;;;;;;;11.10;6.10;;;9.60;99.90;;;;;;4936501;29;20458;-70
2023/10/25 01:25:45;;;;;;;9.27;6.53;;;9.50;99.90;;;;;;4951995;29;20154;-71
2023/10/25 01:28:12;;;;;;;9.02;4.45;;;9.50;99.90;;;;;;4952144;29;20031;-70
2023/10/25 01:30:39;;;;;;;5.68;3.55;;;9.50;99.90;;;;;;4936512;29;20035;-70
2023/10/25 01:33:06;;;;;;;11.32;5.50;;;9.50;99.90;;;;;;4951774;29;20027;-70
2023/10/25 01:35:33;;;;;;;10.00;5.38;;;9.50;99.90;;;;;;4951912;29;20105;-71
2023/10/25 01:37:59;;;;;;;8.85;4.90;;;9.60;99.90;;;;;;4935807;29;20468;-70
2023/10/25 01:40:25;;;;;;;8.38;5.30;;;9.50;99.90;;;;;;4949848;28;20032;-71
2023/10/25 01:42:53;;;;;;;6.70;4.30;;;9.50;99.90;;;;;;4947985;29;20063;-70
2023/10/25 01:45:21;;;;;;;7.45;4.90;;;9.50;99.90;;;;;;4953278;28;20019;-71
2023/10/25 01:47:47;;;;;;;11.60;4.95;;;9.60;99.90;;;;;;4945715;29;20543;-71
2023/10/25 01:50:13;;;;;;;19.55;5.65;;;9.60;99.90;;;;;;4951978;29;20019;-70
2023/10/25 01:52:39;;;;;;;8.35;5.18;;;9.60;99.90;;;;;;4951418;29;20513;-70
2023/10/25 01:55:04;;;;;;;6.55;4.05;;;9.60;99.90;;;;;;4935761;29;20028;-70
2023/10/25 01:57:31;;;;;;;8.43;4.22;;;9.60;99.90;;;;;;4946059;29;20042;-70
2023/10/25 01:59:56;;;;;;;8.63;5.35;;;9.60;99.90;;;;;;4952114;29;20035;-70
2023/10/25 02:02:22;;;;;;;9.10;4.40;;;9.60;99.90;;;;;;4945825;29;20027;-71
2023/10/25 02:04:48;;;;;;;13.48;5.72;;;9.60;99.90;;;;;;4952987;28;20656;-70
2023/10/25 02:07:14;;;;;;;14.82;7.65;;;9.60;99.90;;;;;;4951229;29;20093;-70
2023/10/25 02:09:39;;;;;;;11.77;5.55;;;9.60;99.90;;;;;;4955226;28;20056;-70
2023/10/25 02:12:05;;;;;;;13.68;7.07;;;9.70;99.90;;;;;;4953133;29;20028;-70
2023/10/25 02:14:36;;;;;;;11.43;5.80;;;9.70;99.90;;;;;;4956891;29;20039;-70
2023/10/25 02:17:02;;;;;;;13.00;6.72;;;9.70;99.90;;;;;;4956601;29;20031;-70
2023/10/25 02:19:28;;;;;;;10.73;6.25;;;9.80;99.90;;;;;;4956447;29;20050;-71
2023/10/25 02:21:53;;;;;;;13.50;6.95;;;9.80;99.90;;;;;;4956465;28;20396;-71
2023/10/25 02:24:19;;;;;;;13.73;8.10;;;9.80;99.90;;;;;;4956837;28;20027;-71
2023/10/25 02:26:45;;;;;;;10.75;6.80;;;9.80;99.90;;;;;;4954356;29;20035;-70
2023/10/25 02:29:11;;;;;;;13.15;7.15;;;9.80;99.90;;;;;;4955329;29;20367;-70
2023/10/25 02:31:37;;;;;;;9.45;5.72;;;9.80;99.90;;;;;;4956549;28;20094;-71
2023/10/25 02:34:04;;;;;;;9.95;4.18;;;9.90;99.90;;;;;;4955418;28;20363;-70
2023/10/25 02:36:30;;;;;;;7.82;5.03;;;9.90;99.90;;;;;;4954410;29;20028;-70
2023/10/25 02:39:00;;;;;;;10.27;6.60;;;9.90;99.90;;;;;;4939499;29;20424;-70
2023/10/25 02:41:26;;;;;;;12.75;7.32;;;9.90;99.90;;;;;;4954690;29;20038;-70
2023/10/25 02:43:53;;;;;;;17.15;7.47;;;9.90;99.90;;;;;;4955072;29;20027;-70
2023/10/25 02:46:20;;;;;;;16.20;8.32;;;9.90;99.90;;;;;;4954385;29;20098;-71
2023/10/25 02:48:45;;;;;;;12.88;5.82;;;9.90;99.90;;;;;;4938957;29;20031;-70
2023/10/25 02:51:12;;;;;;;11.90;5.28;;;9.90;99.90;;;;;;4954671;29;20106;-70
2023/10/25 02:53:37;;;;;;;11.52;5.15;;;9.80;99.90;;;;;;4956798;28;20105;-70
2023/10/25 02:56:09;;;;;;;9.35;5.15;;;9.90;99.90;;;;;;4953869;29;20035;-70
2023/10/25 02:58:35;;;;;;;13.80;6.40;;;9.90;99.90;;;;;;4967852;28;20032;-70
2023/10/25 03:01:01;;;;;;;15.18;8.15;;;9.90;99.90;;;;;;4953726;29;20032;-71
2023/10/25 03:03:32;;;;;;;8.55;5.57;;;9.80;99.90;;;;;;4955107;28;20471;-71
2023/10/25 03:05:58;;;;;;;17.90;7.65;;;9.80;99.90;;;;;;4952545;29;20031;-70
2023/10/25 03:08:27;;;;;;;11.52;4.90;;;9.80;99.90;;;;;;4967642;28;20110;-71
2023/10/25 03:10:55;;;;;;;10.68;5.75;;;9.80;99.90;;;;;;4951927;29;20023;-71
2023/10/25 03:13:20;;;;;;;12.02;5.07;;;9.90;99.90;;;;;;4928601;29;20031;-71
2023/10/25 03:15:46;;;;;;;9.35;5.90;;;9.90;99.90;;;;;;4949853;28;20074;-73
2023/10/25 03:18:12;;;;;;;6.60;4.30;;;10.00;99.90;;;;;;4952675;29;20700;-71
2023/10/25 03:20:38;;;;;;;7.90;4.72;;;9.90;99.90;;;;;;4936556;29;20035;-71
2023/10/25 03:23:03;;;;;;;12.07;5.43;;;10.00;99.90;;;;;;4952893;29;20460;-71
2023/10/25 03:25:29;;;;;;;12.32;6.13;;;10.00;99.90;;;;;;4953260;29;20113;-72
2023/10/25 03:27:55;;;;;;;13.38;6.40;;;9.90;99.90;;;;;;4952258;29;20031;-71
2023/10/25 03:30:21;;;;;;;10.63;5.55;;;9.90;99.90;;;;;;4953045;29;20480;-71
2023/10/25 03:32:47;;;;;;;10.60;6.50;;;9.90;99.90;;;;;;4949897;29;20035;-71
2023/10/25 03:35:13;;;;;;;11.15;5.90;;;9.90;99.90;;;;;;4949690;29;20035;-71
2023/10/25 03:37:41;;;;;;;11.00;7.28;;;10.00;99.90;;;;;;4949487;29;20039;-71
2023/10/25 03:40:09;;;;;;;14.85;5.95;;;10.00;99.90;;;;;;4954013;28;20034;-71
2023/10/25 03:42:35;;;;;;;12.98;6.95;;;10.00;99.90;;;;;;4952817;29;20058;-71
2023/10/25 03:45:02;;;;;;;16.63;7.18;;;10.10;99.90;;;;;;4936566;29;20385;-71
2023/10/25 03:47:28;;;;;;;11.95;6.97;;;10.10;99.90;;;;;;4936147;29;20027;-71
2023/10/25 03:49:53;;;;;;;12.00;6.70;;;10.10;99.90;;;;;;4952692;29;20054;-70
2023/10/25 03:52:19;;;;;;;15.82;6.25;;;10.20;99.90;;;;;;4949077;29;20095;-71
2023/10/25 03:54:45;;;;;;;13.60;8.13;;;10.20;99.90;;;;;;4946831;29;20460;-70
2023/10/25 03:57:11;;;;;;;16.17;7.55;;;10.10;99.90;;;;;;4948600;29;20570;-70
2023/10/25 03:59:37;;;;;;;12.45;6.82;;;10.10;99.90;;;;;;4961092;28;20476;-70
2023/10/25 04:02:02;;;;;;;14.70;8.00;;;10.20;99.90;;;;;;4944520;29;20483;-71
2023/10/25 04:04:28;;;;;;;15.85;5.25;;;10.20;99.90;;;;;;4953547;28;20027;-70
2023/10/25 04:06:54;;;;;;;11.95;6.68;;;10.30;99.90;;;;;;4950618;28;20086;-71
2023/10/25 04:09:20;;;;;;;12.23;7.00;;;10.30;99.90;;;;;;4952285;29;20039;-70
2023/10/25 04:11:45;;;;;;;9.85;6.00;;;10.30;99.90;;;;;;4953041;28;20035;-70
2023/10/25 04:14:11;;;;;;;10.63;7.45;;;10.30;99.90;;;;;;4953350;28;20130;-69
2023/10/25 04:16:37;;;;;;;10.23;6.20;;;10.40;99.90;;;;;;4951094;29;20114;-70
2023/10/25 04:19:03;;;;;;;8.30;4.97;;;10.30;99.90;;;;;;4952946;28;20708;-70
2023/10/25 04:21:29;;;;;;;7.68;5.22;;;10.30;99.90;;;;;;4952403;28;20043;-70
2023/10/25 04:23:54;;;;;;;7.60;4.95;;;10.40;99.90;;;;;;4951495;29;20039;-71
2023/10/25 04:26:20;;;;;;;11.38;5.95;;;10.40;99.90;;;;;;4952409;28;20038;-70
2023/10/25 04:28:46;;;;;;;9.38;5.75;;;10.50;99.90;;;;;;4952594;28;20094;-70
2023/10/25 04:31:12;;;;;;;10.35;5.40;;;10.50;99.90;;;;;;4952563;28;20035;-70
2023/10/25 04:33:38;;;;;;;12.80;6.60;;;10.50;99.90;;;;;;4950865;28;20496;-69
2023/10/25 04:36:05;;;;;;;11.90;5.70;;;10.50;99.90;;;;;;4950331;29;20094;-70
2023/10/25 04:38:32;;;;;;;9.50;6.47;;;10.50;99.90;;;;;;4953060;29;20042;-70
2023/10/25 04:40:58;;;;;;;9.25;5.32;;;10.50;99.90;;;;;;4949424;29;20071;-70
2023/10/25 04:43:24;;;;;;;10.15;5.45;;;10.40;99.90;;;;;;4952703;28;20031;-70
2023/10/25 04:45:53;;;;;;;9.55;5.15;;;10.50;99.90;;;;;;4952174;28;20487;-70
2023/10/25 04:48:19;;;;;;;10.68;6.82;;;10.50;99.90;;;;;;4947269;29;20111;-71
2023/10/25 04:50:45;;;;;;;13.05;6.97;;;10.40;99.90;;;;;;4949308;29;20114;-70
2023/10/25 04:53:11;;;;;;;11.23;4.90;;;10.40;99.90;;;;;;4952258;28;20031;-71
2023/10/25 04:55:37;;;;;;;10.32;5.68;;;10.30;99.90;;;;;;4950853;29;20039;-70
2023/10/25 04:58:04;;;;;;;8.13;4.68;;;10.20;99.90;;;;;;4951969;28;20058;-70
2023/10/25 05:00:34;;;;;;;11.13;5.50;;;10.20;99.90;;;;;;4951282;29;20067;-70
2023/10/25 05:02:59;;;;;;;9.68;5.25;;;10.20;99.90;;;;;;4949699;29;20035;-70
2023/10/25 05:05:25;;;;;;;7.03;4.97;;;10.20;99.90;;;;;;4951266;29;20394;-71
2023/10/25 05:07:51;;;;;;;8.23;5.07;;;10.10;99.90;;;;;;4947889;29;20032;-71
2023/10/25 05:10:18;;;;;;;10.23;6.20;;;10.00;99.90;;;;;;4951921;28;20031;-70
2023/10/25 05:12:47;;;;;;;6.53;4.10;;;10.00;99.90;;;;;;4951161;28;20042;-70
2023/10/25 05:15:16;;;;;;;6.93;4.43;;;10.00;99.90;;;;;;4934553;29;20717;-70
2023/10/25 05:17:44;;;;;;;6.18;3.92;;;9.90;99.90;;;;;;4947373;29;20059;-69
2023/10/25 05:20:11;;;;;;;14.45;5.60;;;9.90;99.90;;;;;;4903679;28;20058;-70
2023/10/25 05:22:43;;;;;;;14.38;6.32;;;9.90;99.90;;;;;;4928317;28;20621;-70
2023/10/25 05:25:10;;;;;;;5.97;3.50;;;9.90;99.90;;;;;;4969687;28;20034;-71
2023/10/25 05:27:39;;;;;;;14.52;6.05;;;9.90;99.90;;;;;;4954150;28;20100;-71
2023/10/25 05:30:09;;;;;;;9.68;5.45;;;9.80;99.90;;;;;;4963992;28;20027;-72
2023/10/25 05:32:43;;;;;;;22.38;10.60;;;9.80;99.90;;;;;;4965466;28;20034;-71
2023/10/25 05:35:10;;;;;;;10.20;5.53;;;10.00;99.90;;;;;;4972254;28;20568;-72
2023/10/25 05:37:36;;;;;;;11.00;5.55;;;10.10;99.90;;;;;;4963068;28;20039;-70
2023/10/25 05:40:04;;;;;;;9.30;6.18;;;9.90;99.90;;;;;;4954622;28;20043;-70
2023/10/25 05:42:38;;;;;;;11.20;7.03;;;9.70;99.90;;;;;;4944211;29;20059;-70
2023/10/25 05:45:05;;;;;;;9.82;5.80;;;9.60;99.90;;;;;;4975913;28;20118;-70
2023/10/25 05:47:32;;;;;;;7.93;4.47;;;9.60;99.90;;;;;;4961760;28;20035;-70
2023/10/25 05:49:58;;;;;;;8.63;4.18;;;9.60;99.90;;;;;;4968883;28;20034;-70
2023/10/25 05:52:24;;;;;;;7.70;4.65;;;9.60;99.90;;;;;;4957507;28;20042;-71
2023/10/25 05:54:50;;;;;;;9.13;5.65;;;9.60;99.90;;;;;;4970237;28;20090;-71
2023/10/25 05:57:16;;;;;;;18.83;5.63;;;9.50;99.90;;;;;;4960138;28;20371;-70
2023/10/25 05:59:42;;;;;;;8.30;3.95;;;9.60;99.90;;;;;;4960832;28;20368;-70
2023/10/25 06:02:10;;;;;;;6.95;3.92;;;9.60;99.90;;;;;;4945695;28;20395;-71
2023/10/25 06:04:41;;;;;;;8.32;4.53;;;9.60;99.90;;;;;;4953151;28;20038;-71
2023/10/25 06:07:10;;;;;;;9.07;5.38;;;9.60;99.90;;;;;;4952169;28;20031;-67
2023/10/25 06:09:39;;;;;;;9.70;5.57;;;9.60;99.90;;;;;;4968113;28;20047;-67
2023/10/25 06:12:06;;;;;;;10.45;5.35;;;9.50;99.90;;;;;;4962053;28;20337;-68
2023/10/25 06:14:32;;;;;;;10.93;5.28;;;9.60;99.90;;;;;;4957034;28;20031;-67
2023/10/25 06:17:00;;;;;;;7.05;4.20;;;9.50;99.90;;;;;;4959028;28;20028;-67
2023/10/25 06:19:26;;;;;;;5.68;4.50;;;9.60;99.90;;;;;;4960657;28;20037;-67
2023/10/25 06:21:54;;;;;;;10.38;5.95;;;9.70;99.90;;;;;;4964037;28;20543;-68
2023/10/25 06:24:20;;;;;;;6.63;4.55;;;9.60;99.90;;;;;;4966927;28;20118;-67
2023/10/25 06:26:46;;;;;;;10.43;4.50;;;9.60;99.90;;;;;;4960879;28;20035;-68
2023/10/25 06:29:12;;;;;;;8.00;4.03;;;9.60;99.90;;;;;;4959481;28;20051;-69
2023/10/25 06:31:38;;;;;;;8.85;4.53;;;9.60;99.90;;;;;;4956606;28;20095;-69
2023/10/25 06:34:04;;;;;;;10.75;5.18;;;9.60;99.90;;;;;;4963932;28;20039;-68
2023/10/25 06:36:34;;;;;;;6.95;4.65;;;9.70;99.90;;;;;;4955815;28;20427;-68
2023/10/25 06:39:07;;;;;;;10.70;5.03;;;9.60;99.90;;;;;;4969136;28;20039;-68
2023/10/25 06:41:34;;;;;;;12.88;5.00;;;9.50;99.90;;;;;;4964581;28;20151;-68
2023/10/25 06:44:01;;;;;;;8.80;5.60;;;9.60;99.90;;;;;;4959295;28;20628;-68
2023/10/25 06:46:27;;;;;;;7.60;4.57;;;9.60;99.90;;;;;;4950575;28;20035;-70
2023/10/25 06:48:54;;;;;;;9.52;4.82;;;9.60;99.90;;;;;;4951806;28;20546;-67
2023/10/25 06:51:20;;;;;;;7.72;4.72;;;9.70;99.90;;;;;;4950284;28;20110;-68
2023/10/25 06:53:46;;;;;;;7.93;4.68;;;9.60;99.90;;;;;;4951380;28;20035;-67
2023/10/25 06:56:13;;;;;;;10.00;5.35;;;9.60;99.90;;;;;;4957443;28;20111;-67
2023/10/25 06:58:40;;;;;;;8.18;4.05;;;9.70;99.90;;;;;;4954635;28;20400;-68
2023/10/25 07:01:07;;;;;;;6.10;3.33;;;9.70;99.90;;;;;;4972071;28;20023;-68
2023/10/25 07:03:35;;;;;;;11.20;5.05;;;9.90;99.90;;;;;;4969946;28;20027;-69
2023/10/25 07:06:04;;;;;;;9.55;5.07;;;9.90;99.90;;;;;;4962167;28;20030;-69
2023/10/25 07:08:31;;;;;;;8.85;5.10;;;10.00;99.90;;;;;;4969160;28;20031;-68
2023/10/25 07:10:57;;;;;;;9.20;6.45;;;10.00;99.90;;;;;;4973648;28;20046;-69
2023/10/25 07:13:29;;;;;;;8.68;4.57;;;10.10;99.90;;;;;;4960607;28;20081;-68
2023/10/25 07:15:56;;;;;;;6.75;4.63;;;10.10;99.90;;;;;;4973374;28;20038;-68
2023/10/25 07:18:22;;;;;;;10.90;5.10;;;10.20;99.90;;;;;;4970315;28;20023;-68
2023/10/25 07:20:48;;;;;;;9.02;4.20;;;10.30;99.90;;;;;;4955718;28;20118;-68
2023/10/25 07:23:14;;;;;;;9.93;5.82;;;10.30;99.90;;;;;;4961032;28;20118;-68
2023/10/25 07:25:39;;;;;;;7.43;4.07;;;10.40;99.90;;;;;;4968475;28;20030;-68
2023/10/25 07:28:05;;;;;;;6.03;3.35;;;10.40;99.90;;;;;;4965762;28;20114;-68
2023/10/25 07:30:33;;;;;;;5.57;3.08;;;10.40;99.90;;;;;;4975811;28;20122;-68
2023/10/25 07:32:59;;;;;;;6.75;4.80;;;10.30;99.90;;;;;;4967685;28;20061;-69
2023/10/25 07:35:25;;;;;;;6.88;4.00;;;10.40;99.90;;;;;;4961097;28;20106;-69
2023/10/25 07:37:51;;;;;;;6.43;4.10;;;10.40;99.90;;;;;;4952889;28;20179;-69
2023/10/25 07:40:16;;;;;;;10.15;5.07;;;10.40;99.90;;;;;;4955449;28;20118;-69
2023/10/25 07:42:46;;;;;;;5.80;3.75;;;10.40;99.90;;;;;;4954856;28;20042;-69
2023/10/25 07:45:12;;;;;;;4.93;4.43;;;10.50;99.90;;;;;;4954554;28;20173;-68
2023/10/25 07:47:38;;;;;;;10.50;5.25;;;10.60;99.90;;;;;;4958516;28;20035;-68
2023/10/25 07:50:05;;;;;;;6.60;4.75;;;10.80;99.90;;;;;;4973888;28;20065;-69
2023/10/25 07:52:33;;;;;;;7.70;3.33;;;10.90;99.90;;;;;;4958270;28;20091;-68
2023/10/25 07:54:59;;;;;;;5.68;4.40;;;10.90;99.90;;;;;;4972158;28;20471;-68
2023/10/25 07:57:29;;;;;;;4.03;2.15;;;11.10;99.90;;;;;;4961209;28;20038;-69
2023/10/25 07:59:55;;;;;;;4.68;2.78;;;11.20;99.90;;;;;;4974324;28;20043;-68
2023/10/25 08:02:20;;;;;;;5.45;2.75;;;11.30;99.90;;;;;;4967293;28;20023;-68
2023/10/25 08:04:46;;;;;;;5.85;3.72;;;11.40;99.90;;;;;;4973766;28;20038;-68
2023/10/25 08:07:12;;;;;;;6.45;3.03;;;11.50;99.90;;;;;;4966370;28;20055;-68
2023/10/25 08:09:40;;;;;;;6.90;2.20;;;11.60;99.90;;;;;;4974317;28;20062;-69
2023/10/25 08:12:06;;;;;;;6.70;3.67;;;11.80;99.90;;;;;;4949640;28;20027;-68
2023/10/25 08:14:32;;;;;;;6.40;3.92;;;12.00;99.90;;;;;;4973127;28;20410;-69
2023/10/25 08:16:58;;;;;;;4.45;2.95;;;12.10;99.90;;;;;;4966140;28;20036;-69
2023/10/25 08:19:23;;;;;;;5.40;3.35;;;12.20;99.90;;;;;;4972210;28;20050;-69
2023/10/25 08:21:49;;;;;;;5.53;2.95;;;12.30;99.90;;;;;;4966019;28;20118;-69
2023/10/25 08:24:15;;;;;;;5.97;2.88;;;12.30;99.90;;;;;;4956282;28;20059;-69
2023/10/25 08:26:41;;;;;;;5.65;2.50;;;12.50;99.90;;;;;;4955841;29;20050;-69
2023/10/25 08:29:07;;;;;;;3.47;2.58;;;12.60;99.90;;;;;;4954803;28;20031;-69
2023/10/25 08:31:33;;;;;;;3.17;2.42;;;12.70;99.90;;;;;;4952744;28;20122;-69
2023/10/25 08:34:00;;;;;;;2.28;1.48;;;12.80;99.90;;;;;;4952700;28;20071;-69
2023/10/25 08:36:28;;;;;;;3.60;1.98;;;12.80;99.90;;;;;;4961271;28;20487;-69
2023/10/25 08:38:55;;;;;;;2.50;1.48;;;12.70;99.90;;;;;;4963087;28;20073;-69
2023/10/25 08:41:25;;;;;;;2.60;1.58;;;12.70;99.90;;;;;;4958934;28;20031;-68
2023/10/25 08:43:52;;;;;;;1.85;1.35;;;12.60;99.90;;;;;;4953548;28;20383;-68
2023/10/25 08:46:20;;;;;;;2.00;1.40;;;12.60;99.90;;;;;;4951619;28;20131;-68
2023/10/25 08:48:47;;;;;;;2.05;1.33;;;12.50;99.90;;;;;;4966977;28;20102;-69
2023/10/25 08:51:14;;;;;;;1.67;1.58;;;12.50;99.90;;;;;;4969872;28;20035;-69
2023/10/25 08:53:41;;;;;;;1.58;1.02;;;12.50;99.90;;;;;;4968194;28;20113;-68
2023/10/25 08:56:08;;;;;;;8.23;1.85;;;12.50;99.90;;;;;;4968891;28;20038;-69
2023/10/25 08:58:35;;;;;;;1.88;1.25;;;12.50;99.90;;;;;;4966615;28;20030;-68
2023/10/25 09:01:02;;;;;;;2.45;1.33;;;12.60;99.90;;;;;;4971169;28;20027;-69
2023/10/25 09:03:30;;;;;;;2.33;1.48;;;12.60;99.90;;;;;;4951911;28;20097;-68
2023/10/25 09:06:04;;;;;;;0.88;0.70;;;12.70;99.90;;;;;;4972140;28;20027;-68
2023/10/25 09:08:32;;;;;;;2.85;1.35;;;12.60;99.90;;;;;;4962682;28;20031;-68
2023/10/25 09:11:03;;;;;;;2.63;1.58;;;12.60;99.90;;;;;;4970747;28;20126;-69
2023/10/25 09:13:30;;;;;;;1.60;0.98;;;12.60;99.90;;;;;;4955554;28;20035;-68
2023/10/25 09:16:05;;;;;;;2.03;0.73;;;12.60;99.90;;;;;;4958637;28;20031;-68
2023/10/25 09:18:33;;;;;;;11.10;1.45;;;12.60;99.90;;;;;;4947308;28;20027;-68
2023/10/25 09:21:00;;;;;;;4.70;1.52;;;12.50;99.90;;;;;;4950768;28;20126;-69
2023/10/25 09:23:25;;;;;;;3.13;1.50;;;12.50;99.90;;;;;;4954524;28;20069;-68
2023/10/25 09:25:51;;;;;;;1.50;0.93;;;12.40;99.90;;;;;;4952827;28;20121;-69
2023/10/25 09:28:30;;;;;;;1.05;0.80;;;12.50;99.90;;;;;;4951863;28;20027;-69
2023/10/25 09:30:59;;;;;;;1.15;0.88;;;12.40;99.90;;;;;;4961454;28;20039;-69
2023/10/25 09:33:31;;;;;;;2.05;1.10;;;12.50;99.90;;;;;;4959139;28;20030;-68
2023/10/25 09:35:57;;;;;;;1.73;1.20;;;12.50;99.90;;;;;;4952281;28;20035;-69
2023/10/25 09:38:24;;;;;;;2.05;1.52;;;12.50;99.90;;;;;;4950178;28;20134;-69
2023/10/25 09:40:51;;;;;;;0.60;0.55;;;12.40;99.90;;;;;;4970985;28;20035;-68
2023/10/25 09:43:20;;;;;;;3.60;1.23;;;12.40;99.90;;;;;;4964901;28;20026;-68
2023/10/25 09:45:56;;;;;;;3.35;1.48;;;12.30;99.90;;;;;;4970639;28;20162;-68
2023/10/25 09:48:23;;;;;;;2.25;1.33;;;12.30;99.90;;;;;;4958494;28;20491;-68
2023/10/25 09:51:16;;;;;;;3.10;1.65;;;12.30;99.90;;;;;;4960716;28;20039;-68
2023/10/25 09:53:57;;;;;;;2.83;1.85;;;12.20;99.90;;;;;;4964341;28;20518;-69
2023/10/25 09:56:23;;;;;;;2.45;1.17;;;12.30;99.90;;;;;;4966126;28;20039;-69
2023/10/25 09:58:52;;;;;;;2.67;1.30;;;12.30;99.90;;;;;;4936007;28;20039;-67
2023/10/25 10:01:17;;;;;;;2.40;1.33;;;12.30;99.90;;;;;;4951585;28;20043;-68
2023/10/25 10:04:02;;;;;;;4.15;1.45;;;12.20;99.90;;;;;;4953042;28;20027;-68
2023/10/25 10:06:37;;;;;;;3.45;1.83;;;12.20;99.90;;;;;;4951216;28;20059;-68
2023/10/25 10:09:25;;;;;;;2.92;1.45;;;12.20;99.90;;;;;;4951611;28;20039;-68
2023/10/25 10:12:05;;;;;;;4.35;1.67;;;12.20;99.90;;;;;;4951807;28;20046;-68
2023/10/25 10:14:38;;;;;;;2.50;1.67;;;12.20;99.90;;;;;;4951795;28;20592;-69
2023/10/25 10:17:17;;;;;;;2.60;1.38;;;12.20;99.90;;;;;;4959694;28;20118;-68
2023/10/25 10:19:50;;;;;;;4.15;2.15;;;12.20;99.90;;;;;;4955298;28;20126;-69
2023/10/25 10:22:18;;;;;;;2.83;1.35;;;12.20;99.90;;;;;;4950986;29;20499;-68
2023/10/25 10:24:49;;;;;;;3.65;1.70;;;12.20;99.90;;;;;;4952434;28;20451;-68
2023/10/25 10:27:17;;;;;;;0.70;0.52;;;12.20;99.90;;;;;;4954405;28;20041;-68
2023/10/25 10:29:48;;;;;;;2.45;1.02;;;12.20;99.90;;;;;;4956123;28;20047;-69
2023/10/25 10:32:15;;;;;;;2.55;1.02;;;12.30;99.90;;;;;;4953584;28;20031;-68
2023/10/25 10:34:42;;;;;;;1.00;0.68;;;12.30;99.90;;;;;;4919281;28;20043;-67
2023/10/25 10:37:16;;;;;;;2.17;1.13;;;12.30;99.90;;;;;;4954385;28;20027;-68
2023/10/25 10:39:57;;;;;;;1.33;1.02;;;12.40;99.90;;;;;;4952372;28;20574;-70
2023/10/25 10:42:32;;;;;;;0.80;0.73;;;12.30;99.90;;;;;;4947925;28;20027;-70
2023/10/25 10:45:00;;;;;;;2.35;1.08;;;12.30;99.90;;;;;;4952044;28;20035;-70
2023/10/25 10:47:50;;;;;;;1.73;1.00;;;12.30;99.90;;;;;;4950287;28;20023;-70
2023/10/25 10:50:19;;;;;;;0.85;0.55;;;12.30;99.90;;;;;;4952105;28;20092;-69
2023/10/25 10:52:48;;;;;;;1.23;0.80;;;12.30;99.90;;;;;;4968829;28;20038;-68
2023/10/25 10:55:19;;;;;;;0.70;0.60;;;12.30;99.90;;;;;;4956382;28;21037;-68
2023/10/25 10:57:45;;;;;;;2.80;0.90;;;12.30;99.90;;;;;;4968612;28;20070;-68
2023/10/25 11:00:19;;;;;;;2.30;1.35;;;12.30;99.90;;;;;;4968752;28;20031;-69
2023/10/25 11:02:50;;;;;;;3.80;1.77;;;12.40;99.90;;;;;;4969203;28;20106;-69
2023/10/25 11:05:22;;;;;;;1.75;1.10;;;12.40;99.90;;;;;;4961941;28;20023;-69
2023/10/25 11:07:49;;;;;;;4.75;1.92;;;12.50;99.90;;;;;;4954331;28;20036;-68
2023/10/25 11:10:16;;;;;;;4.95;1.98;;;12.50;99.90;;;;;;4959211;28;20034;-69
2023/10/25 11:12:44;;;;;;;9.38;1.98;;;12.60;99.90;;;;;;4955035;28;20027;-69
2023/10/25 11:15:12;;;;;;;1.17;0.63;;;12.50;99.90;;;;;;4958419;28;20142;-69
2023/10/25 11:17:39;;;;;;;3.95;0.90;;;12.50;99.90;;;;;;4966300;28;20505;-68
2023/10/25 11:20:06;;;;;;;0.55;0.47;;;12.60;99.90;;;;;;4960569;28;20541;-68
2023/10/25 11:22:33;;;;;;;1.95;0.82;;;12.70;99.90;;;;;;4967344;28;20082;-68
2023/10/25 11:24:59;;;;;;;1.45;1.00;;;12.70;99.90;;;;;;4970966;28;20085;-67
2023/10/25 11:27:33;;;;;;;2.53;1.58;;;12.70;99.90;;;;;;4967713;28;20026;-67
2023/10/25 11:30:04;;;;;;;1.50;1.00;;;12.60;99.90;;;;;;4972237;28;20494;-68
2023/10/25 11:32:31;;;;;;;1.10;0.70;;;12.60;99.90;;;;;;4967627;28;20417;-68
2023/10/25 11:34:58;;;;;;;0.63;0.50;;;12.60;99.90;;;;;;4959596;28;20134;-69
2023/10/25 11:37:39;;;;;;;2.20;0.77;;;12.70;99.90;;;;;;4966175;28;20046;-69
2023/10/25 11:40:06;;;;;;;2.72;0.75;;;12.70;99.90;;;;;;4969913;28;20039;-69
2023/10/25 11:42:33;;;;;;;0.40;0.40;;;12.70;99.90;;;;;;4951090;28;20135;-69
2023/10/25 11:45:00;;;;;;;0.88;0.50;;;12.70;99.90;;;;;;4969823;28;20022;-70
2023/10/25 11:47:27;;;;;;;4.25;1.17;;;12.70;99.90;;;;;;4953313;28;20038;-69
2023/10/25 11:49:56;;;;;;;1.65;0.80;;;12.70;99.90;;;;;;4954434;28;20023;-68
2023/10/25 11:52:23;;;;;;;2.83;1.55;;;12.80;99.90;;;;;;4953283;28;20039;-68
2023/10/25 11:54:55;;;;;;;2.20;1.45;;;12.90;99.90;;;;;;4970169;28;20130;-68
2023/10/25 11:57:32;;;;;;;1.15;0.80;;;12.90;99.90;;;;;;4958904;28;20031;-68
2023/10/25 11:59:58;;;;;;;2.72;0.90;;;12.90;99.90;;;;;;4969639;28;20090;-68
2023/10/25 12:02:26;;;;;;;2.20;0.95;;;12.90;99.90;;;;;;4957880;28;20027;-68
2023/10/25 12:04:54;;;;;;;1.73;0.57;;;13.00;99.90;;;;;;4965918;28;20066;-68
2023/10/25 12:07:25;;;;;;;1.45;0.98;;;13.00;99.90;;;;;;4959130;28;20023;-69
2023/10/25 12:09:52;;;;;;;3.83;0.80;;;13.10;99.90;;;;;;4972561;28;20505;-68
2023/10/25 12:12:18;;;;;;;1.73;0.80;;;13.10;99.90;;;;;;4968616;28;20063;-68
2023/10/25 12:14:44;;;;;;;0.88;0.65;;;13.20;99.90;;;;;;4969876;28;20058;-69
2023/10/25 12:17:10;;;;;;;1.65;0.88;;;13.20;99.90;;;;;;4964450;28;20030;-68
2023/10/25 12:19:37;;;;;;;1.30;0.98;;;13.30;99.90;;;;;;4939206;29;20039;-68
2023/10/25 12:22:12;;;;;;;1.58;0.77;;;13.30;99.90;;;;;;4953678;28;20030;-69
2023/10/25 12:24:39;;;;;;;1.52;1.00;;;13.30;99.90;;;;;;4971866;28;20153;-68
2023/10/25 12:27:09;;;;;;;2.80;1.52;;;13.30;99.90;;;;;;4945224;28;20035;-70
2023/10/25 12:29:35;;;;;;;3.92;1.50;;;13.30;99.90;;;;;;4957607;28;20114;-68
2023/10/25 12:32:05;;;;;;;2.90;0.75;;;13.20;99.90;;;;;;4961754;28;20031;-69
2023/10/25 12:34:31;;;;;;;2.20;1.10;;;13.10;99.90;;;;;;4970857;28;20042;-69
2023/10/25 12:36:57;;;;;;;2.15;1.40;;;13.10;99.90;;;;;;4944962;28;20032;-69
2023/10/25 12:39:23;;;;;;;3.92;0.90;;;13.00;99.90;;;;;;4957237;28;20058;-69
2023/10/25 12:41:49;;;;;;;1.27;0.73;;;13.00;99.90;;;;;;4960151;28;20062;-70
2023/10/25 12:44:16;;;;;;;0.57;0.52;;;13.00;99.90;;;;;;4973806;28;20027;-68
2023/10/25 12:46:43;;;;;;;1.10;0.93;;;12.90;99.90;;;;;;4956361;28;20039;-69
2023/10/25 12:49:13;;;;;;;3.17;1.63;;;12.90;99.90;;;;;;4970591;28;20383;-69